createdAt,value
2022-10-19T00:14:07.042Z,100
2022-10-19T00:20:04.836Z,100
2022-10-19T00:26:05.919Z,100
2022-10-19T00:32:00.441Z,100
2022-10-19T00:37:52.885Z,100
2022-10-19T00:43:48.618Z,100
2022-10-19T00:49:44.805Z,100
2022-10-19T00:55:46.427Z,100
2022-10-19T01:01:37.698Z,100
2022-10-19T01:07:29.092Z,100
2022-10-19T01:13:22.746Z,100
2022-10-19T01:19:16.058Z,100
2022-10-19T01:25:14.138Z,100
2022-10-19T01:31:30.319Z,100
2022-10-19T01:37:29.168Z,100
2022-10-19T01:43:35.707Z,100
2022-10-19T01:49:32.219Z,100
2022-10-19T01:55:38.802Z,100
2022-10-19T02:01:53.222Z,100
2022-10-19T02:08:19.084Z,100
2022-10-19T02:14:16.056Z,100
2022-10-19T02:20:18.938Z,100
2022-10-19T02:26:13.106Z,100
2022-10-19T02:38:31.714Z,100
2022-10-19T02:44:25.113Z,100
2022-10-19T02:50:24.752Z,100
2022-10-19T02:56:23.409Z,100
2022-10-19T03:02:18.058Z,100
2022-10-19T03:08:10.447Z,100
2022-10-19T03:14:11.677Z,100
2022-10-19T03:20:09.597Z,100
2022-10-19T03:26:02.906Z,100
2022-10-19T03:32:09.500Z,100
2022-10-19T03:38:06.852Z,100
2022-10-19T03:44:27.922Z,100
2022-10-19T03:50:20.530Z,100
2022-10-19T03:56:14.167Z,100
2022-10-19T04:02:05.241Z,100
2022-10-19T04:08:00.290Z,100
2022-10-19T04:13:53.584Z,100
2022-10-19T04:19:47.700Z,100
2022-10-19T04:25:40.484Z,100
2022-10-19T04:31:30.349Z,100
2022-10-19T04:37:24.277Z,100
2022-10-19T04:43:19.576Z,100
2022-10-19T04:49:34.348Z,100
2022-10-19T04:55:40.588Z,100
2022-10-19T05:02:03.850Z,100
2022-10-19T05:08:17.918Z,100
2022-10-19T05:14:25.194Z,100
2022-10-19T05:20:28.222Z,100
2022-10-19T05:26:27.037Z,100
2022-10-19T05:32:33.877Z,100
2022-10-19T05:38:42.806Z,100
2022-10-19T06:03:56.512Z,100
2022-10-19T06:16:31.031Z,100
2022-10-19T06:23:52.929Z,100
2022-10-19T06:29:50.146Z,100
2022-10-19T06:54:32.886Z,100
2022-10-19T07:00:40.125Z,100
2022-10-19T07:06:35.269Z,100
2022-10-19T07:12:34.670Z,100
2022-10-19T07:18:28.740Z,100
2022-10-19T07:24:30.104Z,100
2022-10-19T07:30:39.531Z,100
2022-10-19T07:36:41.816Z,100
2022-10-19T07:43:01.614Z,100
2022-10-19T07:49:18.581Z,100
2022-10-19T07:55:45.575Z,100
2022-10-19T08:01:36.008Z,100
2022-10-19T08:14:03.207Z,100
2022-10-19T08:20:07.206Z,100
2022-10-19T08:26:11.149Z,100
2022-10-19T08:32:22.779Z,100
2022-10-19T08:38:54.442Z,100
2022-10-19T08:45:10.953Z,100
2022-10-19T08:51:16.751Z,100
2022-10-19T08:57:24.639Z,100
2022-10-19T09:03:54.794Z,100
2022-10-19T09:09:57.828Z,100
2022-10-19T09:16:00.793Z,100
2022-10-19T09:22:00.727Z,100
2022-10-19T09:28:05.821Z,100
2022-10-19T09:33:58.793Z,100
2022-10-19T09:40:09.071Z,100
2022-10-19T09:46:16.572Z,100
2022-10-19T09:52:26.701Z,100
2022-10-19T09:58:20.219Z,100
2022-10-19T10:04:15.768Z,100
2022-10-19T10:10:07.869Z,100
2022-10-19T10:16:02.204Z,100
2022-10-19T10:21:53.062Z,100
2022-10-19T10:27:44.983Z,99.6
2022-10-19T10:33:47.534Z,98.1
2022-10-19T10:39:37.593Z,96.6
2022-10-19T10:45:32.063Z,95.7
2022-10-19T10:51:25.084Z,97.5
2022-10-19T10:57:17.413Z,96.8
2022-10-19T11:03:10.285Z,92.4
2022-10-19T11:09:03.415Z,94
2022-10-19T11:14:55.394Z,91.4
2022-10-19T11:20:48.335Z,90.8
2022-10-19T11:26:40.947Z,92.2
2022-10-19T11:32:34.647Z,92.6
2022-10-19T11:38:31.693Z,93.6
2022-10-19T11:44:22.041Z,92.8
2022-10-19T11:50:13.743Z,90.6
2022-10-19T11:56:05.947Z,91.8
2022-10-19T12:01:56.721Z,88.7
2022-10-19T12:07:51.764Z,89
2022-10-19T12:13:43.417Z,89.7
2022-10-19T12:19:33.618Z,89.3
2022-10-19T12:25:24.527Z,88.4
2022-10-19T12:31:15.845Z,88.8
2022-10-19T12:37:05.729Z,88.4
2022-10-19T12:42:57.426Z,87.5
2022-10-19T12:48:48.034Z,89
2022-10-19T12:54:38.491Z,88.1
2022-10-19T13:00:30.453Z,87
2022-10-19T13:06:20.686Z,87.3
2022-10-19T13:12:14.860Z,87.5
2022-10-19T13:18:21.977Z,87
2022-10-19T13:24:17.300Z,86.8
2022-10-19T13:30:07.505Z,85.5
2022-10-19T13:36:01.564Z,84.9
2022-10-19T13:41:56.503Z,85
2022-10-19T13:47:50.024Z,86.4
2022-10-19T13:53:42.094Z,85.3
2022-10-19T13:59:33.643Z,86.1
2022-10-19T14:05:25.147Z,86
2022-10-19T14:11:16.062Z,85.5
2022-10-19T14:17:08.762Z,83.4
2022-10-19T14:23:00.770Z,83.8
2022-10-19T14:28:51.915Z,84.3
2022-10-19T14:34:42.771Z,82.6
2022-10-19T14:40:33.976Z,80.9
2022-10-19T14:46:25.354Z,80.1
2022-10-19T14:52:16.607Z,80.5
2022-10-19T14:58:08.221Z,79.2
2022-10-19T15:04:01.895Z,81.2
2022-10-19T15:09:52.683Z,79.7
2022-10-19T15:15:45.602Z,78.9
2022-10-19T15:21:36.831Z,79.2
2022-10-19T15:27:27.884Z,77.4
2022-10-19T15:33:19.454Z,77.7
2022-10-19T15:39:41.098Z,77.6
2022-10-19T15:45:33.228Z,78.6
2022-10-19T15:51:23.772Z,80.2
2022-10-19T15:57:16.022Z,80.8
2022-10-19T16:03:20.631Z,80.8
2022-10-19T16:09:36.427Z,83.6
